createdAt,value
2019-01-11T00:01:49.697Z,5.53
2019-01-11T00:04:19.317Z,3.80
2019-01-11T00:06:48.970Z,2.42
2019-01-11T00:09:19.224Z,2.05
2019-01-11T00:11:48.887Z,3.33
2019-01-11T00:14:18.465Z,3.17
2019-01-11T00:16:48.144Z,3.15
2019-01-11T00:19:17.809Z,1.87
2019-01-11T00:21:47.356Z,3.67
2019-01-11T00:24:16.727Z,2.30
2019-01-11T00:26:46.259Z,3.47
2019-01-11T00:29:15.824Z,1.85
2019-01-11T00:31:45.487Z,2.37
2019-01-11T00:34:15.193Z,1.25
2019-01-11T00:36:44.946Z,2.30
2019-01-11T00:39:14.616Z,1.32
2019-01-11T00:41:44.242Z,3.22
2019-01-11T00:44:13.898Z,3.52
2019-01-11T00:46:43.470Z,2.50
2019-01-11T00:49:13.692Z,3.30
2019-01-11T00:51:43.383Z,4.08
2019-01-11T00:54:12.893Z,1.10
2019-01-11T00:56:42.502Z,2.62
2019-01-11T00:59:11.956Z,1.52
2019-01-11T01:01:41.470Z,2.35
2019-01-11T01:04:11.063Z,3.42
2019-01-11T01:06:40.617Z,2.05
2019-01-11T01:09:10.432Z,1.57
2019-01-11T01:11:40.097Z,2.05
2019-01-11T01:14:09.645Z,3.17
2019-01-11T01:16:39.288Z,1.95
2019-01-11T01:19:08.750Z,3.02
2019-01-11T01:21:38.441Z,1.52
2019-01-11T01:24:07.984Z,2.22
2019-01-11T01:26:37.782Z,1.50
2019-01-11T01:29:07.309Z,1.80
2019-01-11T01:31:36.931Z,2.42
2019-01-11T01:34:06.667Z,2.37
2019-01-11T01:36:36.026Z,2.10
2019-01-11T01:39:07.900Z,1.65
2019-01-11T01:41:37.414Z,2.10
2019-01-11T01:44:06.863Z,2.37
2019-01-11T01:46:36.396Z,2.42
2019-01-11T01:49:05.874Z,1.17
2019-01-11T01:51:35.347Z,1.35
2019-01-11T01:54:05.180Z,1.27
2019-01-11T01:56:34.926Z,2.50
2019-01-11T01:59:04.698Z,1.60
2019-01-11T02:01:34.094Z,2.02
2019-01-11T02:04:03.764Z,1.80
2019-01-11T02:06:33.572Z,1.90
2019-01-11T02:09:05.133Z,3.27
2019-01-11T02:11:34.645Z,2.60
2019-01-11T02:14:04.797Z,1.77
2019-01-11T02:16:34.345Z,1.65
2019-01-11T02:19:03.807Z,1.30
2019-01-11T02:21:33.216Z,0.65
2019-01-11T02:24:02.805Z,1.32
2019-01-11T02:26:32.242Z,1.67
2019-01-11T02:29:01.728Z,0.90
2019-01-11T02:31:31.236Z,1.42
2019-01-11T02:34:00.583Z,1.25
2019-01-11T02:36:30.047Z,1.15
2019-01-11T02:38:59.582Z,2.25
2019-01-11T02:41:29.064Z,1.00
2019-01-11T02:43:58.443Z,0.85
2019-01-11T02:46:28.119Z,1.62
2019-01-11T02:48:57.657Z,2.98
2019-01-11T02:51:27.198Z,0.90
2019-01-11T02:53:56.644Z,0.70
2019-01-11T02:56:26.249Z,3.52
2019-01-11T02:58:55.960Z,1.50
2019-01-11T03:01:25.496Z,1.12
2019-01-11T03:03:55.086Z,1.17
2019-01-11T03:06:24.774Z,1.70
2019-01-11T03:08:54.296Z,1.27
2019-01-11T03:11:23.982Z,1.07
2019-01-11T03:13:53.558Z,0.95
2019-01-11T03:16:22.883Z,0.80
2019-01-11T03:18:52.292Z,1.00
2019-01-11T03:21:21.840Z,0.80
2019-01-11T03:23:51.303Z,1.47
2019-01-11T03:26:20.876Z,0.98
2019-01-11T03:28:50.355Z,1.72
2019-01-11T03:31:34.931Z,0.72
2019-01-11T03:34:04.901Z,0.80
2019-01-11T03:36:34.345Z,1.05
2019-01-11T03:39:05.186Z,0.80
2019-01-11T03:41:36.266Z,1.27
2019-01-11T03:44:05.674Z,1.60
2019-01-11T03:46:35.264Z,1.22
2019-01-11T03:49:04.799Z,1.50
2019-01-11T03:51:34.475Z,1.52
2019-01-11T03:54:03.885Z,1.55
2019-01-11T03:56:33.517Z,1.10
2019-01-11T03:59:03.076Z,1.72
2019-01-11T04:01:32.575Z,2.10
2019-01-11T04:04:02.118Z,1.20
2019-01-11T04:06:31.685Z,0.88
2019-01-11T04:09:01.201Z,0.80
2019-01-11T04:11:30.545Z,1.10
2019-01-11T04:14:00.008Z,0.90
2019-01-11T04:16:29.575Z,1.02
2019-01-11T04:19:03.496Z,1.17
2019-01-11T04:21:32.924Z,2.15
2019-01-11T04:24:02.515Z,1.42
2019-01-11T04:26:32.052Z,0.90
2019-01-11T04:29:00.207Z,0.78
2019-01-11T04:31:29.744Z,1.25
2019-01-11T04:33:59.119Z,2.62
2019-01-11T04:36:28.616Z,0.53
2019-01-11T04:38:58.092Z,0.98
2019-01-11T04:41:27.558Z,2.22
2019-01-11T04:43:56.936Z,1.15
2019-01-11T04:46:26.549Z,0.57
2019-01-11T04:48:55.946Z,1.05
2019-01-11T04:51:25.536Z,1.35
2019-01-11T04:53:54.934Z,0.70
2019-01-11T04:56:24.317Z,0.50
2019-01-11T04:58:53.896Z,2.30
2019-01-11T05:01:23.469Z,0.62
2019-01-11T05:03:52.920Z,1.25
2019-01-11T05:06:22.399Z,0.50
2019-01-11T05:08:51.869Z,0.60
2019-01-11T05:11:21.566Z,0.75
2019-01-11T05:13:54.363Z,0.50
2019-01-11T05:16:23.843Z,1.37
2019-01-11T05:18:53.896Z,2.27
2019-01-11T05:21:23.219Z,1.05
2019-01-11T05:23:52.919Z,1.22
2019-01-11T05:26:22.366Z,0.53
2019-01-11T05:28:51.829Z,1.20
2019-01-11T05:31:21.269Z,0.93
2019-01-11T05:33:50.824Z,0.60
2019-01-11T05:36:20.350Z,1.42
2019-01-11T05:38:49.847Z,1.22
2019-01-11T05:41:19.480Z,1.22
2019-01-11T05:43:49.005Z,2.45
2019-01-11T05:46:18.409Z,1.72
2019-01-11T05:48:48.093Z,0.62
2019-01-11T05:51:17.639Z,0.60
2019-01-11T05:53:46.970Z,1.17
2019-01-11T05:56:19.024Z,0.78
2019-01-11T05:59:07.507Z,0.72
2019-01-11T06:01:36.878Z,0.68
2019-01-11T06:04:31.816Z,0.72
2019-01-11T06:07:12.297Z,1.17
2019-01-11T06:09:42.119Z,0.85
2019-01-11T06:12:11.654Z,0.50
2019-01-11T06:14:41.150Z,1.22
2019-01-11T06:17:10.860Z,0.93
2019-01-11T06:19:40.377Z,0.65
2019-01-11T06:22:09.909Z,1.75
2019-01-11T06:24:39.436Z,0.65
2019-01-11T06:27:09.309Z,1.20
2019-01-11T06:29:39.111Z,1.30
2019-01-11T06:32:08.784Z,1.42
2019-01-11T06:34:38.394Z,1.10
2019-01-11T06:37:07.925Z,0.82
2019-01-11T06:39:37.493Z,0.40
2019-01-11T06:42:25.450Z,0.85
2019-01-11T06:44:55.169Z,0.80
2019-01-11T06:47:24.705Z,0.78
2019-01-11T06:49:54.172Z,1.90
2019-01-11T06:52:23.615Z,0.80
2019-01-11T06:54:53.074Z,0.70
2019-01-11T06:57:22.636Z,1.57
2019-01-11T06:59:52.319Z,0.60
2019-01-11T07:02:22.403Z,1.10
2019-01-11T07:04:52.120Z,2.67
2019-01-11T07:07:21.880Z,1.50
2019-01-11T07:09:51.383Z,1.05
2019-01-11T07:12:21.470Z,1.52
2019-01-11T07:14:50.913Z,4.45
2019-01-11T07:17:20.412Z,1.52
2019-01-11T07:19:50.334Z,1.80
2019-01-11T07:22:19.848Z,1.90
2019-01-11T07:24:49.597Z,2.52
2019-01-11T07:27:18.970Z,3.25
2019-01-11T07:29:48.414Z,8.83
2019-01-11T07:32:17.764Z,16.85
2019-01-11T07:34:47.152Z,9.23
2019-01-11T07:37:16.571Z,16.50
2019-01-11T07:39:46.078Z,29.00
2019-01-11T07:42:15.579Z,45.38
2019-01-11T07:44:46.082Z,19.65
2019-01-11T07:47:17.314Z,37.73
2019-01-11T07:49:48.626Z,25.85
2019-01-11T07:52:18.474Z,32.70
2019-01-11T07:54:47.982Z,23.77
2019-01-11T07:57:17.482Z,20.12
2019-01-11T07:59:47.111Z,15.55
2019-01-11T08:02:16.552Z,17.73
2019-01-11T08:04:46.123Z,19.50
2019-01-11T08:07:16.034Z,19.95
2019-01-11T08:09:46.604Z,16.95
2019-01-11T08:12:16.142Z,12.55
2019-01-11T08:14:45.702Z,11.70
2019-01-11T08:17:15.166Z,12.45
2019-01-11T08:19:44.654Z,8.05
2019-01-11T08:22:30.118Z,10.32
2019-01-11T08:25:03.451Z,8.53
2019-01-11T08:27:32.991Z,8.00
2019-01-11T08:30:02.517Z,12.15
2019-01-11T08:32:32.069Z,11.12
2019-01-11T08:35:03.270Z,7.95
2019-01-11T08:37:33.317Z,5.42
2019-01-11T08:40:03.301Z,7.10
2019-01-11T08:42:32.904Z,6.75
2019-01-11T08:45:02.484Z,5.80
2019-01-11T08:47:32.089Z,6.37
2019-01-11T08:50:01.997Z,7.25
2019-01-11T08:52:31.498Z,5.90
2019-01-11T08:55:00.954Z,7.65
2019-01-11T08:57:30.543Z,6.80
2019-01-11T09:00:00.283Z,5.37
2019-01-11T09:02:29.680Z,4.90
2019-01-11T09:04:59.363Z,4.60
2019-01-11T09:07:28.951Z,7.83
2019-01-11T09:09:58.644Z,3.10
2019-01-11T09:12:28.156Z,5.50
2019-01-11T09:14:57.758Z,4.80
2019-01-11T09:17:27.331Z,5.12
2019-01-11T09:19:57.037Z,4.72
2019-01-11T09:22:26.577Z,2.87
2019-01-11T09:24:56.201Z,3.72
2019-01-11T09:27:25.713Z,4.17
2019-01-11T09:29:55.332Z,4.08
2019-01-11T09:32:25.665Z,5.62
2019-01-11T09:34:55.190Z,2.92
2019-01-11T09:37:24.559Z,3.35
2019-01-11T09:39:54.357Z,5.78
2019-01-11T09:42:23.918Z,4.12
2019-01-11T09:44:55.143Z,3.58
2019-01-11T09:47:24.726Z,2.70
2019-01-11T09:49:54.257Z,3.00
2019-01-11T09:52:23.787Z,3.62
2019-01-11T09:54:53.637Z,3.22
2019-01-11T09:57:23.265Z,1.92
2019-01-11T09:59:52.860Z,3.95
2019-01-11T10:02:26.972Z,3.08
2019-01-11T10:04:56.446Z,5.10
2019-01-11T10:07:27.500Z,2.67
2019-01-11T10:09:56.944Z,3.52
2019-01-11T10:12:26.500Z,4.45
2019-01-11T10:14:56.055Z,2.45
2019-01-11T10:17:25.594Z,1.98
2019-01-11T10:19:55.391Z,4.95
2019-01-11T10:22:24.985Z,2.47
2019-01-11T10:24:54.810Z,3.12
2019-01-11T10:27:24.408Z,2.35
2019-01-11T10:29:54.017Z,2.80
2019-01-11T10:32:23.712Z,2.17
2019-01-11T10:34:54.519Z,4.10
2019-01-11T10:37:23.995Z,2.65
2019-01-11T10:39:53.618Z,2.80
2019-01-11T10:42:23.328Z,2.75
2019-01-11T10:44:52.816Z,2.77
2019-01-11T10:47:22.238Z,3.12
2019-01-11T10:49:51.672Z,2.52
2019-01-11T10:52:21.149Z,2.80
2019-01-11T10:54:50.776Z,2.80
2019-01-11T10:57:20.251Z,4.37
2019-01-11T10:59:49.904Z,4.17
2019-01-11T11:02:19.367Z,3.47
2019-01-11T11:04:48.979Z,3.25
2019-01-11T11:07:18.839Z,2.77
2019-01-11T11:09:48.282Z,3.37
2019-01-11T11:12:17.872Z,4.05
2019-01-11T11:14:47.469Z,2.77
2019-01-11T11:17:16.983Z,3.22
2019-01-11T11:19:46.457Z,2.72
2019-01-11T11:22:16.364Z,4.20
2019-01-11T11:24:46.034Z,3.22
2019-01-11T11:27:15.474Z,3.65
2019-01-11T11:29:45.093Z,3.12
2019-01-11T11:32:15.728Z,3.67
2019-01-11T11:34:47.036Z,2.60
2019-01-11T11:37:18.725Z,3.25
2019-01-11T11:39:48.395Z,2.80
2019-01-11T11:42:17.933Z,3.98
2019-01-11T11:44:47.404Z,3.92
2019-01-11T11:47:17.052Z,2.65
2019-01-11T11:49:46.686Z,3.08
2019-01-11T11:52:16.334Z,3.83
2019-01-11T11:54:45.671Z,3.85
2019-01-11T11:57:15.088Z,3.83
2019-01-11T11:59:44.680Z,4.20
2019-01-11T12:02:19.277Z,3.27
2019-01-11T12:04:45.590Z,2.72
2019-01-11T12:07:15.266Z,3.62
2019-01-11T12:09:44.662Z,2.65
2019-01-11T12:12:14.309Z,4.12
2019-01-11T12:14:43.773Z,2.47
2019-01-11T12:17:13.174Z,3.80
2019-01-11T12:19:42.585Z,2.12
2019-01-11T12:22:12.120Z,3.30
2019-01-11T12:24:41.658Z,3.35
2019-01-11T12:27:11.190Z,2.90
2019-01-11T12:29:40.642Z,4.80
2019-01-11T12:32:10.193Z,5.28
2019-01-11T12:34:39.772Z,5.90
2019-01-11T12:37:09.379Z,6.92
2019-01-11T12:39:38.992Z,5.90
2019-01-11T12:42:08.591Z,7.72
2019-01-11T12:44:38.186Z,6.17
2019-01-11T12:47:07.788Z,8.45
2019-01-11T12:49:37.240Z,7.17
2019-01-11T12:52:06.863Z,8.68
2019-01-11T12:54:36.554Z,8.95
2019-01-11T12:57:06.085Z,8.48
2019-01-11T12:59:35.691Z,9.00
2019-01-11T13:02:05.701Z,6.87
2019-01-11T13:04:35.127Z,7.30
2019-01-11T13:07:04.629Z,8.05
2019-01-11T13:09:35.211Z,7.28
2019-01-11T13:12:05.136Z,7.40
2019-01-11T13:14:34.715Z,7.15
2019-01-11T13:17:04.251Z,8.05
2019-01-11T13:19:34.929Z,7.35
2019-01-11T13:22:04.699Z,8.35
2019-01-11T13:24:34.192Z,8.63
2019-01-11T13:27:04.188Z,8.93
2019-01-11T13:29:33.620Z,6.78
2019-01-11T13:32:04.364Z,7.08
2019-01-11T13:34:34.029Z,7.83
2019-01-11T13:37:03.849Z,8.43
2019-01-11T13:39:33.314Z,8.43
2019-01-11T13:42:02.913Z,7.28
2019-01-11T13:44:32.494Z,7.00
2019-01-11T13:47:02.121Z,6.80
2019-01-11T13:49:31.659Z,7.60
2019-01-11T13:52:06.979Z,6.40
2019-01-11T13:54:32.314Z,5.95
2019-01-11T13:57:01.780Z,5.85
2019-01-11T13:59:31.379Z,6.87
2019-01-11T14:02:01.185Z,7.37
2019-01-11T14:04:30.841Z,5.75
2019-01-11T14:07:00.212Z,5.72
2019-01-11T14:09:29.750Z,7.85
2019-01-11T14:11:59.260Z,8.98
2019-01-11T14:14:28.863Z,9.58
2019-01-11T14:16:58.396Z,10.78
2019-01-11T14:19:28.218Z,10.98
2019-01-11T14:21:57.821Z,12.85
2019-01-11T14:24:27.474Z,12.20
2019-01-11T14:26:57.082Z,12.37
2019-01-11T14:29:26.526Z,12.07
2019-01-11T14:31:56.159Z,13.68
2019-01-11T14:34:25.532Z,11.15
2019-01-11T14:36:55.508Z,11.97
2019-01-11T14:39:25.321Z,10.88
2019-01-11T14:41:55.279Z,9.70
2019-01-11T14:44:24.875Z,11.22
2019-01-11T14:46:54.309Z,10.98
2019-01-11T14:49:23.790Z,10.20
2019-01-11T14:51:53.229Z,9.60
2019-01-11T14:54:22.793Z,10.00
2019-01-11T14:56:52.541Z,8.48
2019-01-11T14:59:22.032Z,8.93
2019-01-11T15:01:51.786Z,7.87
2019-01-11T15:04:21.443Z,7.85
2019-01-11T15:06:50.917Z,9.70
2019-01-11T15:09:20.588Z,9.15
2019-01-11T15:11:50.217Z,9.50
2019-01-11T15:14:19.746Z,7.50
2019-01-11T15:16:49.526Z,7.87
2019-01-11T15:19:19.009Z,6.08
2019-01-11T15:21:48.415Z,6.53
2019-01-11T15:24:18.008Z,7.90
2019-01-11T15:26:47.488Z,6.65
2019-01-11T15:29:17.026Z,7.20
2019-01-11T15:31:46.657Z,6.45
2019-01-11T15:34:16.448Z,5.92
2019-01-11T15:36:45.915Z,6.58
2019-01-11T15:39:15.658Z,5.20
2019-01-11T15:41:45.217Z,6.65
2019-01-11T15:44:14.797Z,5.75
2019-01-11T15:46:44.493Z,5.70
2019-01-11T15:49:13.964Z,5.92
2019-01-11T15:51:43.748Z,5.67
2019-01-11T15:54:13.265Z,5.90
2019-01-11T15:56:42.857Z,5.30
2019-01-11T15:59:12.392Z,5.10
2019-01-11T16:01:41.910Z,7.03
2019-01-11T16:04:11.457Z,5.10
2019-01-11T16:06:42.537Z,5.58
2019-01-11T16:09:56.111Z,7.33
2019-01-11T16:12:28.578Z,8.53
2019-01-11T16:15:04.319Z,12.07
2019-01-11T16:17:33.866Z,12.98
2019-01-11T16:20:03.246Z,12.90
2019-01-11T16:22:32.751Z,13.88
2019-01-11T16:25:02.571Z,15.18
2019-01-11T16:27:32.245Z,14.93
2019-01-11T16:30:03.361Z,13.78
2019-01-11T16:32:32.950Z,15.28
2019-01-11T16:35:02.481Z,15.50
2019-01-11T16:37:32.078Z,15.98
2019-01-11T16:40:01.758Z,19.35
2019-01-11T16:42:31.289Z,21.00
2019-01-11T16:45:00.798Z,21.20
2019-01-11T16:47:30.389Z,19.40
2019-01-11T16:50:01.674Z,20.00
2019-01-11T16:52:31.156Z,19.73
2019-01-11T16:55:00.758Z,18.10
2019-01-11T16:57:30.276Z,18.32
2019-01-11T16:59:59.890Z,17.45
2019-01-11T17:02:36.459Z,17.12
2019-01-11T17:05:00.688Z,16.35
2019-01-11T17:07:30.416Z,17.75
2019-01-11T17:10:00.142Z,17.12
2019-01-11T17:12:29.736Z,16.42
2019-01-11T17:14:59.336Z,16.95
2019-01-11T17:17:28.934Z,19.10
2019-01-11T17:19:58.598Z,19.65
2019-01-11T17:22:28.149Z,20.55
2019-01-11T17:24:57.763Z,19.87
2019-01-11T17:27:27.313Z,20.50
2019-01-11T17:29:56.884Z,18.70
2019-01-11T17:32:26.569Z,19.15
2019-01-11T17:34:56.127Z,19.40
2019-01-11T17:37:25.961Z,18.00
2019-01-11T17:39:55.589Z,16.97
2019-01-11T17:42:25.205Z,20.12
2019-01-11T17:44:54.586Z,15.88
2019-01-11T17:47:24.413Z,16.35
2019-01-11T17:49:54.069Z,14.70
2019-01-11T17:52:24.719Z,12.68
2019-01-11T17:54:56.882Z,11.53
2019-01-11T17:57:26.634Z,13.10
2019-01-11T17:59:56.385Z,12.00
2019-01-11T18:02:25.890Z,9.58
2019-01-11T18:04:55.315Z,9.53
2019-01-11T18:07:24.793Z,8.53
2019-01-11T18:09:54.635Z,12.25
2019-01-11T18:12:24.334Z,7.33
2019-01-11T18:14:53.839Z,9.58
2019-01-11T18:17:23.521Z,10.20
2019-01-11T18:19:52.898Z,9.45
2019-01-11T18:22:22.513Z,10.50
2019-01-11T18:24:52.190Z,8.98
2019-01-11T18:27:21.864Z,8.05
2019-01-11T18:29:51.371Z,15.32
2019-01-11T18:32:20.953Z,12.78
2019-01-11T18:34:50.550Z,34.08
2019-01-11T18:37:20.006Z,33.98
2019-01-11T18:39:49.823Z,22.15
2019-01-11T18:42:19.401Z,32.75
2019-01-11T18:44:48.925Z,20.55
2019-01-11T18:47:18.444Z,19.65
2019-01-11T18:49:49.235Z,14.23
2019-01-11T18:52:18.777Z,30.37
2019-01-11T18:54:48.378Z,27.42
2019-01-11T18:57:18.048Z,36.58
2019-01-11T18:59:47.613Z,13.88
2019-01-11T19:02:17.051Z,32.40
2019-01-11T19:04:46.545Z,38.90
2019-01-11T19:07:16.157Z,39.20
2019-01-11T19:09:45.916Z,23.22
2019-01-11T19:12:15.602Z,15.38
2019-01-11T19:14:45.459Z,23.52
2019-01-11T19:17:15.898Z,13.70
2019-01-11T19:19:45.698Z,19.80
2019-01-11T19:22:15.287Z,15.48
2019-01-11T19:24:44.845Z,25.15
2019-01-11T19:27:14.861Z,19.98
2019-01-11T19:29:44.523Z,19.30
2019-01-11T19:32:14.090Z,14.25
2019-01-11T19:34:43.921Z,12.93
2019-01-11T19:37:13.772Z,19.27
2019-01-11T19:39:43.413Z,9.50
2019-01-11T19:42:13.019Z,14.93
2019-01-11T19:44:42.603Z,11.60
2019-01-11T19:47:12.133Z,6.95
2019-01-11T19:49:41.713Z,9.75
2019-01-11T19:52:11.436Z,11.70
2019-01-11T19:54:41.191Z,17.70
2019-01-11T19:57:11.814Z,9.95
2019-01-11T19:59:41.429Z,14.13
2019-01-11T20:02:10.911Z,15.88
2019-01-11T20:04:40.611Z,8.73
2019-01-11T20:07:10.223Z,7.05
2019-01-11T20:09:39.863Z,17.42
2019-01-11T20:12:09.333Z,5.87
2019-01-11T20:14:38.833Z,5.17
2019-01-11T20:17:14.062Z,5.60
2019-01-11T20:19:39.600Z,7.53
2019-01-11T20:22:09.440Z,5.92
2019-01-11T20:24:39.895Z,6.45
2019-01-11T20:27:09.454Z,5.40
2019-01-11T20:29:39.200Z,7.50
2019-01-11T20:32:08.726Z,2.83
2019-01-11T20:34:38.383Z,4.05
2019-01-11T20:37:20.887Z,4.08
2019-01-11T20:39:50.567Z,6.47
2019-01-11T20:42:20.017Z,4.37
2019-01-11T20:44:49.707Z,3.20
2019-01-11T20:47:19.303Z,6.87
2019-01-11T20:49:49.160Z,7.50
2019-01-11T20:52:18.787Z,5.72
2019-01-11T20:54:48.470Z,11.28
2019-01-11T20:57:18.200Z,9.70
2019-01-11T20:59:47.608Z,11.43
2019-01-11T21:02:17.264Z,9.03
2019-01-11T21:04:46.945Z,7.22
2019-01-11T21:07:16.498Z,7.53
2019-01-11T21:09:46.016Z,4.00
2019-01-11T21:12:15.645Z,3.75
2019-01-11T21:14:45.236Z,4.53
2019-01-11T21:17:15.117Z,3.10
2019-01-11T21:19:44.820Z,5.65
2019-01-11T21:22:14.549Z,2.30
2019-01-11T21:24:44.288Z,2.42
2019-01-11T21:27:13.815Z,2.77
2019-01-11T21:29:43.395Z,4.78
2019-01-11T21:32:12.972Z,2.85
2019-01-11T21:34:44.932Z,2.52
2019-01-11T21:37:14.674Z,2.58
2019-01-11T21:39:44.693Z,1.90
2019-01-11T21:42:19.018Z,3.50
2019-01-11T21:44:45.326Z,1.32
2019-01-11T21:47:14.989Z,4.80
2019-01-11T21:49:44.664Z,2.92
2019-01-11T21:52:14.148Z,1.62
2019-01-11T21:54:43.841Z,6.72
2019-01-11T21:57:13.551Z,1.37
2019-01-11T21:59:43.129Z,2.87
2019-01-11T22:02:12.969Z,1.82
2019-01-11T22:04:42.418Z,1.92
2019-01-11T22:07:11.977Z,6.08
2019-01-11T22:09:41.685Z,4.33
2019-01-11T22:12:11.146Z,1.35
2019-01-11T22:14:40.577Z,4.65
2019-01-11T22:17:10.133Z,6.92
2019-01-11T22:19:39.724Z,7.03
2019-01-11T22:22:09.355Z,14.05
2019-01-11T22:24:38.853Z,3.05
2019-01-11T22:27:08.383Z,2.52
2019-01-11T22:29:38.108Z,4.10
2019-01-11T22:32:07.453Z,4.00
2019-01-11T22:34:36.893Z,4.80
2019-01-11T22:37:06.325Z,4.47
2019-01-11T22:39:36.234Z,6.17
2019-01-11T22:42:05.802Z,3.92
2019-01-11T22:44:35.410Z,2.67
2019-01-11T22:47:05.065Z,2.87
2019-01-11T22:49:34.733Z,3.75
2019-01-11T22:52:04.599Z,1.67
2019-01-11T22:54:34.118Z,1.85
2019-01-11T22:57:03.667Z,2.15
2019-01-11T22:59:33.137Z,1.87
2019-01-11T23:02:26.375Z,2.42
2019-01-11T23:04:56.034Z,3.15
2019-01-11T23:07:52.264Z,2.90
2019-01-11T23:10:47.550Z,2.47
2019-01-11T23:13:17.844Z,3.77
2019-01-11T23:15:51.283Z,3.35
2019-01-11T23:18:23.135Z,2.75
2019-01-11T23:20:55.665Z,3.75
2019-01-11T23:23:25.176Z,3.17
2019-01-11T23:25:54.591Z,3.90
2019-01-11T23:28:24.150Z,2.00
2019-01-11T23:30:53.754Z,1.92
2019-01-11T23:33:23.346Z,2.08
2019-01-11T23:35:52.918Z,1.27
2019-01-11T23:38:22.295Z,2.80
2019-01-11T23:40:51.775Z,3.50
2019-01-11T23:43:21.315Z,3.05
2019-01-11T23:45:50.790Z,1.95
2019-01-11T23:48:20.404Z,5.58
2019-01-11T23:50:50.061Z,9.98
2019-01-11T23:53:19.672Z,6.53
2019-01-11T23:55:49.197Z,4.70
2019-01-11T23:58:18.747Z,6.10
